Aérodrome :
LOGIN :

S'inscrire | Disclaimer

   EN    FR    IT 

 










Légende :    VFR   VFR Marginal   IFR   IFR Intensif   IFR Très Intensif
Visi : 
Plafond : 
>= 8 km
>= 3000ft
5 à 8 km
1000 à 3000 ft
1500m à 5 km
500 à 1000 ft
800 à 1500m
200 à 500 ft
< 800m
< 200 ft
Symboles :   Orages  Brouillard  Fortes neiges  Fortes précipitations  Vent > 20 kt
SIGMETs :   Divers  Orages  Givrage  Turbulence  Onde Orograph.  Cendres Volcan.






- Altitude de l'aérodrome : 499 ft
- Code IATA : TLS


LFBO - Toulouse / Blagnac

DERNIER METAR :
  • 100630Z AUTO 13008KT 110V170 CAVOK 12/07 Q1020 NOSIG

METARs EXPIRÉS :
  • 100600Z AUTO 12003KT CAVOK 10/05 Q1020 NOSIG
  • 100530Z AUTO 14003KT CAVOK 09/05 Q1020 NOSIG
  • 100500Z AUTO 16003KT CAVOK 09/05 Q1019 NOSIG
  • 100430Z AUTO VRB02KT CAVOK 10/04 Q1019 NOSIG
  • 100400Z AUTO VRB02KT CAVOK 10/04 Q1019 NOSIG

TAF TAF LFBO
Valide du 10 à 06h jusqu'au 11 à 12h UTC


100500Z 1006/1112 13004KT CAVOK
BECMG 1006/1008 14010KT
TEMPO 1022/1105 12005KT
ATIS : +33 5 62 74 66 36



MET'MAP, la Météo Aéronautique d'un coup d'oeil ! - Copyright ORBIFLY Décembre 2007 - Disclaimer

ORBIFLY MET'MAP TEAM :

Programmation & Développement : Alexandra Zaïnal
Sur une idée originale de : Baudouin d'Aumeries
Assistance à la programmation : Marc-Olivier Méhu
Soutien technique & logistique : Manuel Goepfert

Contact : metmap@orbifly.com




SOURCES & CREDITS :

   NOAA